• Join FlightAware (Why Join?)
  • Login
  • US Flag 
05:32AM EDT


 

Airport Tracker/Info


-or-


 

Live Flight TrackerFlight Track Log ✈ N717AN ✈ 27-Oct-2013 ✈ EGLL / LHR - KJFK

Flight Track Log - Related Links

Times and Time Zones

All times are in EDT time to prevent confusion due to time zone crossing. See the N717AN flight status page for this flight to view local times or setup timezone preferences in your user account.

Time Position Orientation Groundspeed Altitude Reporting Facility
EDT Latitude Longitude Course Direction KTS MPH feet Rate Location/Type
06:18AM 51.4776 -0.4852 271° West 182 209 1,200  Level FlightAware ADS-B
06:18AM 51.4775 -0.5123 269° West 178 205 2,100 3,240 Climbing FlightAware ADS-B
06:18AM 51.4774 -0.5212 269° West 170 196 2,500 3,720 Climbing FlightAware ADS-B
06:18AM 51.4774 -0.5217 265° West 170 196 2,600 2,640 Climbing FlightAware ADS-B
06:18AM 51.4765 -0.5320 262° West 168 193 2,900 2,700 Climbing FlightAware ADS-B
06:18AM 51.4761 -0.5358 260° West 165 190 3,100 3,420 Climbing FlightAware ADS-B
06:19AM 51.4756 -0.5395 258° West 162 186 3,300 2,520 Climbing FlightAware ADS-B
06:19AM 51.4749 -0.5437 255° West 162 186 3,400 1,980 Climbing FlightAware ADS-B
06:19AM 51.4751 -0.5427 72° East 161 185 3,500 2,760 Climbing FlightAware ADS-B
06:19AM 51.4726 -0.5581 255° West 160 184 4,000 2,400 Climbing FlightAware ADS-B
06:19AM 51.4715 -0.5648 255° West 165 190 4,100 1,980 Climbing FlightAware ADS-B
06:19AM 51.4713 -0.5665 258° West 168 193 4,300 1,500 Climbing FlightAware ADS-B
06:19AM 51.4688 -0.5840 257° West 183 211 4,500 1,500 Climbing FlightAware ADS-B
06:19AM 51.4672 -0.5954 257° West 195 224 4,800 2,100 Climbing FlightAware ADS-B
06:19AM 51.4652 -0.6094 257° West 204 235 5,100 1,860 Climbing FlightAware ADS-B
06:20AM 51.4631 -0.6233 256° West 213 245 5,400 2,280 Climbing FlightAware ADS-B
06:20AM 51.4607 -0.6385 256° West 221 254 5,900 2,760 Climbing FlightAware ADS-B (EPRZ / RZE)
06:20AM 51.4592 -0.6475 255° West 222 255 6,100 3,000 Climbing FlightAware ADS-B
06:20AM 51.4605 -0.6394 75° East 223 257 6,400 3,000 Climbing FlightAware ADS-B
06:20AM 51.4574 -0.6608 257° West 224 258 6,500 3,000 Climbing FlightAware ADS-B
06:20AM 51.4567 -0.6696 263° West 225 259 6,800 3,300 Climbing FlightAware ADS-B
06:20AM 51.4565 -0.6749 267° West 226 260 7,000 3,000 Climbing FlightAware ADS-B
06:20AM 51.4561 -0.7002 269° West 233 268 7,700 2,520 Climbing FlightAware ADS-B
06:20AM 51.4560 -0.7054 268° West 234 269 7,800 3,000 Climbing FlightAware ADS-B (EPRZ / RZE)
06:21AM 51.4560 -0.7137 270° West 232 267 8,100 4,320 Climbing FlightAware ADS-B (EGLW)
06:21AM 51.4560 -0.7270 270° West 233 268 8,600 3,600 Climbing FlightAware ADS-B
06:21AM 51.4562 -0.7327 273° West 235 270 8,700 2,220 Climbing FlightAware ADS-B
06:21AM 51.4568 -0.7401 277° West 238 274 8,900 3,000 Climbing FlightAware ADS-B
06:21AM 51.4571 -0.7418 284° West 239 275 9,000 3,000 Climbing FlightAware ADS-B (EPRZ / RZE)
06:21AM 51.4579 -0.7471 284° West 242 278 9,100 1,980 Climbing FlightAware ADS-B
06:21AM 51.4590 -0.7523 289° West 246 283 9,200 3,000 Climbing FlightAware ADS-B
06:21AM 51.4612 -0.7610 292° West 250 288 9,500 3,600 Climbing FlightAware ADS-B
06:21AM 51.4636 -0.7701 293° West 250 288 9,800 3,000 Climbing FlightAware ADS-B
06:21AM 51.4650 -0.7751 294° West 250 288 9,900 8,220 Climbing FlightAware ADS-B
06:21AM 51.4661 -0.7792 294° West 269 310 10,900 2,160 Climbing FlightAware ADS-B (EGWE)
06:22AM 51.4801 -0.8281 295° West 272 313 11,000 540 Climbing FlightAware ADS-B
06:22AM 51.4835 -0.8405 294° West 281 323 11,200 1,800 Climbing FlightAware ADS-B
06:22AM 51.4868 -0.8523 294° West 288 331 11,400 2,640 Climbing FlightAware ADS-B
06:22AM 51.4882 -0.8575 294° West 287 330 11,600 660 Climbing FlightAware ADS-B (EGWE)
06:22AM 51.4963 -0.8878 293° West 308 354 11,600 780 Level FlightAware ADS-B
06:22AM 51.5049 -0.9206 293° West 325 374 12,000 1,260 Climbing FlightAware ADS-B (EPRZ / RZE)
06:23AM 51.5098 -0.9400 292° West 334 384 12,100 1,560 Climbing FlightAware ADS-B
06:23AM 51.5137 -0.9560 292° West 339 390 12,400 1,740 Climbing FlightAware ADS-B
06:23AM 51.5172 -0.9706 291° West 339 390 12,600 2,520 Climbing FlightAware ADS-B
06:23AM 51.5250 -1.0056 290° West 345 397 13,300 3,240 Climbing FlightAware ADS-B
06:23AM 51.5356 -1.0556 289° West 347 399 14,300 3,180 Climbing FlightAware ADS-B
06:23AM 51.5407 -1.0808 288° West 351 404 14,900 3,000 Climbing FlightAware ADS-B
06:24AM 51.5432 -1.0937 288° West 349 402 15,100 3,480 Climbing FlightAware ADS-B
06:24AM 51.5488 -1.1214 288° West 349 402 15,900 3,360 Climbing FlightAware ADS-B
06:24AM 51.5512 -1.1338 287° West 351 404 16,000 2,100 Climbing FlightAware ADS-B (EGLC / LCY)
06:24AM 51.5555 -1.1555 288° West 353 406 16,400 2,820 Climbing FlightAware ADS-B
06:24AM 51.5605 -1.1813 287° West 354 407 16,900 2,280 Climbing FlightAware ADS-B
06:24AM 51.5603 -1.1801 109° East 354 407 16,900 1,500 Level FlightAware ADS-B
06:24AM 51.5641 -1.2002 287° West 356 410 17,200 3,000 Climbing FlightAware ADS-B
06:24AM 51.5700 -1.2301 288° West 360 414 17,700 3,720 Climbing FlightAware ADS-B
06:24AM 51.5705 -1.2326 288° West 362 417 17,700 2,400 Level FlightAware ADS-B
06:25AM 51.5723 -1.2421 287° West 360 414 17,900  Climbing FlightAware ADS-B
06:25AM 51.5705 -1.2326 107° East 360 414 17,700 1,980 Descending FlightAware ADS-B
06:25AM 51.5792 -1.2775 287° West 362 417 18,500 4,500 Climbing FlightAware ADS-B
06:25AM 51.5858 -1.3110 288° West 363 418 19,200 4,800 Climbing FlightAware ADS-B
06:25AM 51.5867 -1.3159 287° West 361 415 19,300 2,400 Climbing FlightAware ADS-B (EGTR / ETR)
06:25AM 51.5906 -1.3355 288° West 365 420 19,600 1,980 Climbing FlightAware ADS-B
06:25AM 51.5942 -1.3538 288° West 370 426 19,800 1,860 Climbing FlightAware ADS-B
06:26AM 51.6017 -1.3929 287° West 375 432 20,300 2,100 Climbing FlightAware ADS-B
06:26AM 51.6044 -1.4074 287° West 375 432 20,500 1,980 Climbing FlightAware ADS-B
06:26AM 51.6064 -1.4178 287° West 376 433 20,600 1,200 Climbing FlightAware ADS-B (EGUO)
06:26AM 51.6170 -1.4735 287° West 378 435 21,000 780 Climbing FlightAware ADS-B
06:26AM 51.6216 -1.4976 287° West 382 440 21,000  Level FlightAware ADS-B (EGUO)
06:27AM 51.6329 -1.5556 287° West 384 442 21,000  Level FlightAware ADS-B
06:27AM 51.6376 -1.5801 287° West 384 442 21,000  Level FlightAware ADS-B
06:27AM 51.6485 -1.6375 287° West 384 442 21,000  Level FlightAware ADS-B
06:27AM 51.6547 -1.6702 287° West 385 443 21,000  Level FlightAware ADS-B (EGUO)
06:28AM 51.6643 -1.7210 287° West 384 442 21,000 180 Level FlightAware ADS-B
06:28AM 51.6702 -1.7517 287° West 385 443 21,100 1,380 Climbing FlightAware ADS-B (LRCV / CRA)
06:28AM 51.6800 -1.8038 287° West 386 444 21,700 1,800 Climbing FlightAware ADS-B
06:28AM 51.6837 -1.8233 287° West 387 445 22,000 2,160 Climbing FlightAware ADS-B
06:29AM 51.6957 -1.8871 287° West 392 451 22,800 2,400 Climbing FlightAware ADS-B
06:29AM 51.7025 -1.9232 287° West 394 453 23,300 2,160 Climbing FlightAware ADS-B (LRCV / CRA)
06:29AM 51.7115 -1.9713 287° West 396 456 23,900 2,160 Climbing FlightAware ADS-B
06:29AM 51.7186 -2.0095 287° West 398 458 24,400 1,920 Climbing FlightAware ADS-B (EGHI / SOU)
06:30AM 51.7277 -2.0575 287° West 401 461 24,900 1,680 Climbing FlightAware ADS-B
06:30AM 51.7356 -2.0997 287° West 405 466 25,300 1,860 Climbing FlightAware ADS-B (EGLC / LCY)
06:30AM 51.7440 -2.1433 287° West 408 470 25,800 1,800 Climbing FlightAware ADS-B
06:30AM 51.7478 -2.1586 292° West 410 472 25,900 1,200 Climbing FlightAware ADS-B
06:30AM 51.7522 -2.1713 299° West 414 476 26,000 1,680 Climbing FlightAware ADS-B
06:30AM 51.7551 -2.1786 303° West 407 468 26,100 1,980 Climbing FlightAware ADS-B
06:30AM 51.7551 -2.1786 168° South 417 480 26,200 2,520 Climbing FlightAware ADS-B (EGLC / LCY)
06:30AM 51.7700 -2.2123 305° West 417 480 26,700 3,360 Climbing FlightAware ADS-B
06:31AM 51.7831 -2.2416 306° West 403 464 27,500 4,380 Climbing FlightAware ADS-B (EGHI / SOU)
06:31AM 51.7874 -2.2514 306° West 405 466 27,800 1,980 Climbing FlightAware ADS-B
06:31AM 51.7896 -2.2566 305° West 399 459 27,900 1,500 Climbing FlightAware ADS-B
06:31AM 51.7968 -2.2732 305° West 399 459 28,200 3,480 Climbing FlightAware ADS-B
06:31AM 51.8142 -2.3150 304° West 393 452 28,900 3,180 Climbing FlightAware ADS-B
06:31AM 51.8167 -2.3212 303° West 398 458 28,900 1,320 Level FlightAware ADS-B
06:32AM 51.8428 -2.3891 302° West 402 463 29,600 1,620 Climbing FlightAware ADS-B
06:32AM 51.8492 -2.4060 301° West 403 464 29,800 1,380 Climbing FlightAware ADS-B
06:32AM 51.8712 -2.4651 301° West 409 471 30,300 1,140 Climbing FlightAware ADS-B
06:32AM 51.8793 -2.4860 302° West 404 465 30,400 1,620 Climbing FlightAware ADS-B
06:32AM 51.8840 -2.4979 303° West 409 471 30,600 1,800 Climbing FlightAware ADS-B (EGLC / LCY)
06:32AM 51.8895 -2.5117 303° West 409 471 30,700  Climbing FlightAware ADS-B
06:32AM 51.8860 -2.5030 123° Southeast 403 464 30,600 2,040 Descending FlightAware ADS-B
06:33AM 51.9232 -2.5935 304° West 405 466 31,800 1,320 Climbing FlightAware ADS-B (EGUO)
06:34AM 51.9553 -2.6715 304° West 403 464 32,000 300 Climbing FlightAware ADS-B
06:34AM 51.9633 -2.6911 304° West 404 465 32,000  Level FlightAware ADS-B (EGDX / DGX)
06:34AM 51.9858 -2.7461 304° West 406 467 32,000  Level FlightAware ADS-B (LRCV / CRA)
06:34AM 52.0160 -2.8201 304° West 399 459 32,000  Level FlightAware ADS-B (EGUO)
06:35AM 52.0230 -2.8372 304° West 404 465 32,000  Level FlightAware ADS-B (EGBS)
06:35AM 52.0554 -2.9164 304° West 404 465 32,000  Level FlightAware ADS-B
06:36AM 52.0848 -2.9882 304° West 406 467 32,000  Level FlightAware ADS-B (EGBS)
06:36AM 52.1174 -3.0679 304° West 404 465 32,000  Level FlightAware ADS-B (LRCV / CRA)
06:36AM 52.1205 -3.0755 304° West 398 458 32,000  Level FlightAware ADS-B
06:37AM 52.1498 -3.1472 304° West 398 458 32,000  Level FlightAware ADS-B
06:37AM 52.1531 -3.1556 303° West 403 464 32,000  Level FlightAware ADS-B (EGDX / DGX)
06:37AM 52.1702 -3.1974 304° West 398 458 32,000  Level FlightAware ADS-B
06:37AM 52.1828 -3.2284 304° West 402 463 32,000  Level FlightAware ADS-B (EGDX / DGX)
06:37AM 52.1944 -3.2571 303° West 401 461 32,000  Level FlightAware ADS-B
06:38AM 52.2050 -3.2833 303° West 402 463 32,000  Level FlightAware ADS-B
06:38AM 52.2144 -3.3068 303° West 402 463 32,000  Level FlightAware ADS-B
06:38AM 52.2150 -3.3081 308° West 397 457 32,000  Level FlightAware ADS-B
06:38AM 52.2264 -3.3363 303° West 398 458 32,000  Level FlightAware ADS-B
06:38AM 52.2399 -3.3697 303° West 403 464 32,000  Level FlightAware ADS-B (EGBS)
06:38AM 52.2424 -3.3760 303° West 399 459 32,000  Level FlightAware ADS-B
06:38AM 52.2540 -3.4047 303° West 403 464 32,000  Level FlightAware ADS-B
06:38AM 52.2583 -3.4156 303° West 399 459 32,000  Level FlightAware ADS-B
06:39AM 52.2593 -3.4179 305° West 399 459 32,000  Level FlightAware ADS-B
06:39AM 52.2758 -3.4589 303° West 398 458 32,000  Level FlightAware ADS-B
06:39AM 52.2727 -3.4513 123° Southeast 399 459 32,000  Level FlightAware ADS-B
06:39AM 52.2848 -3.4811 304° West 402 463 32,000  Level FlightAware ADS-B
06:39AM 52.2869 -3.4864 303° West 398 458 32,000  Level FlightAware ADS-B
06:39AM 52.2898 -3.4938 303° West 398 458 32,000  Level FlightAware ADS-B
06:39AM 52.3032 -3.5272 303° West 397 457 32,000  Level FlightAware ADS-B
06:39AM 52.3070 -3.5366 303° West 403 464 32,000  Level FlightAware ADS-B (LRCV / CRA)
06:39AM 52.3174 -3.5625 303° West 402 463 32,000  Level FlightAware ADS-B
06:40AM 52.3184 -3.5650 302° West 398 458 32,000  Level FlightAware ADS-B
06:40AM 52.3336 -3.6031 303° West 400 460 32,000  Level FlightAware ADS-B
06:40AM 52.3407 -3.6208 303° West 406 467 32,000  Level FlightAware ADS-B (EGLC / LCY)
06:40AM 52.3469 -3.6362 303° West 406 467 32,000  Level FlightAware ADS-B (EGGP / LPL)
06:40AM 52.3488 -3.6411 303° West 405 466 32,000  Level FlightAware ADS-B
06:40AM 52.3627 -3.6759 303° West 407 468 32,000  Level FlightAware ADS-B (EGLC / LCY)
06:40AM 52.3727 -3.7009 303° West 408 470 32,000  Level FlightAware ADS-B (EGLC / LCY)
06:40AM 52.3711 -3.6971 122° Southeast 403 464 32,000  Level FlightAware ADS-B
06:40AM 52.3817 -3.7236 303° West 408 470 32,000  Level FlightAware ADS-B (EGLC / LCY)
06:41AM 52.3947 -3.7563 303° West 403 464 32,000  Level FlightAware ADS-B
06:41AM 52.4051 -3.7827 303° West 403 464 32,000  Level FlightAware ADS-B
06:41AM 52.4278 -3.8398 303° West 402 463 32,000  Level FlightAware ADS-B
06:41AM 52.4386 -3.8671 303° West 402 463 32,000  Level FlightAware ADS-B
06:42AM 52.4748 -3.9590 303° West 404 465 32,000  Level FlightAware ADS-B
06:42AM 52.5045 -4.0346 303° West 401 461 32,000  Level FlightAware ADS-B
06:43AM 52.5390 -4.1225 303° West 400 460 32,000  Level FlightAware ADS-B
06:43AM 52.5441 -4.1354 303° West 397 457 32,000  Level FlightAware ADS-B
06:43AM 52.5606 -4.1775 303° West 397 457 32,000  Level FlightAware ADS-B
06:44AM 52.5666 -4.1929 303° West 398 458 32,000  Level FlightAware ADS-B
06:44AM 52.6050 -4.2914 303° West 405 466 32,000  Level FlightAware ADS-B
06:44AM 52.6183 -4.3258 303° West 401 461 32,000  Level FlightAware ADS-B (EGBS)
06:45AM 52.6219 -4.3351 303° West 401 461 32,000  Level FlightAware ADS-B
06:45AM 52.6452 -4.3951 303° West 400 460 32,000  Level FlightAware ADS-B
06:45AM 52.6780 -4.4798 303° West 406 467 32,000  Level FlightAware ADS-B (EGBS)
06:45AM 52.6785 -4.4811 304° West 402 463 32,000  Level FlightAware ADS-B
06:46AM 52.7029 -4.5446 302° West 403 464 32,000  Level FlightAware ADS-B
06:46AM 52.7306 -4.6166 302° West 404 465 32,000  Level FlightAware ADS-B
06:47AM 52.7656 -4.7077 302° West 407 468 32,000  Level FlightAware ADS-B
06:47AM 52.7921 -4.7769 302° West 407 468 32,000  Level FlightAware ADS-B
06:47AM 52.7936 -4.7811 302° West 403 464 32,000  Level FlightAware ADS-B
06:48AM 52.8068 -4.8158 302° West 402 463 32,000  Level FlightAware ADS-B
06:48AM 52.8459 -4.9187 302° West 403 464 32,000  Level FlightAware ADS-B
06:49AM 52.8791 -5.0063 302° West 407 468 32,000  Level FlightAware ADS-B (EGBS)
06:49AM 52.8786 -5.0049 123° Southeast 402 463 32,000  Level FlightAware ADS-B
06:49AM 52.8853 -5.0229 302° West 404 465 32,000  Level FlightAware ADS-B
06:49AM 52.9199 -5.1144 302° West 407 468 32,000  Level FlightAware ADS-B
06:49AM 52.9214 -5.1183 302° West 407 468 32,000  Level FlightAware ADS-B
06:50AM 52.9493 -5.1928 302° West 403 464 32,000  Level FlightAware ADS-B
06:50AM 52.9834 -5.2835 302° West 400 460 32,000  Level FlightAware ADS-B
06:51AM 53.0134 -5.3640 302° West 401 461 32,000  Level FlightAware ADS-B
06:51AM 53.0413 -5.4391 302° West 405 466 32,000  Level FlightAware ADS-B
06:52AM 53.0510 -5.4642 303° West 406 467 32,000  Level FlightAware ADS-B
06:52AM 53.0850 -5.5310 310° West 418 481 32,000  Level FlightAware ADS-B (LRCV / CRA)
06:52AM 53.0928 -5.5436 316° Northwest 414 476 32,000  Level FlightAware ADS-B
06:52AM 53.1049 -5.5624 317° Northwest 422 486 32,000  Level FlightAware ADS-B
06:53AM 53.1600 -5.6449 318° Northwest 426 490 32,000  Level FlightAware ADS-B
06:53AM 53.2042 -5.7104 318° Northwest 426 490 32,000  Level FlightAware ADS-B (LRCV / CRA)
06:54AM 53.2557 -5.7880 318° Northwest 424 488 32,000  Level FlightAware ADS-B
06:54AM 53.2684 -5.8073 318° Northwest 417 480 32,000  Level FlightAware ADS-B
06:54AM 53.2858 -5.8337 318° Northwest 416 479 32,000  Level FlightAware ADS-B
06:55AM 53.3192 -5.8847 318° Northwest 415 478 32,000  Level FlightAware ADS-B
06:55AM 53.3677 -5.9586 318° Northwest 421 484 32,000  Level FlightAware ADS-B
06:56AM 53.4094 -6.0225 318° Northwest 424 488 32,000  Level FlightAware ADS-B (EIDW / DUB)
06:56AM 53.4586 -6.0979 318° Northwest 428 493 32,000  Level FlightAware ADS-B
06:57AM 53.5049 -6.1691 318° Northwest 433 498 32,000  Level FlightAware ADS-B
06:57AM 53.5550 -6.2463 318° Northwest 435 501 32,000  Level FlightAware ADS-B (EIDW / DUB)
06:58AM 53.6060 -6.3254 317° Northwest 433 498 32,000  Level FlightAware ADS-B (EIDW / DUB)
06:59AM 53.6506 -6.3944 317° Northwest 430 495 32,000 -120 Level FlightAware ADS-B (EIDW / DUB)
06:59AM 53.6943 -6.4621 317° Northwest 498 573 31,900  Descending FlightAware UK
06:59AM 53.7072 -6.4827 317° Northwest 428 493 32,000 120 Climbing FlightAware ADS-B (EIDW / DUB)
07:00AM 53.7546 -6.5569 317° Northwest 430 495 32,000  Level FlightAware ADS-B (EIDW / DUB)
07:00AM 53.8141 -6.6501 317° Northwest 432 497 32,000  Level FlightAware ADS-B (EIDW / DUB)
07:01AM 53.8588 -6.7206 317° Northwest 432 497 32,000  Level FlightAware ADS-B (EIDW / DUB)
07:01AM 53.9032 -6.7906 317° Northwest 434 499 32,000  Level FlightAware ADS-B (EIDW / DUB)
07:02AM 53.9454 -6.8574 317° Northwest 435 501 32,000  Level FlightAware ADS-B (EIDW / DUB)
07:03AM 53.9965 -6.9387 317° Northwest 433 498 32,000  Level FlightAware ADS-B (EIDW / DUB)
07:03AM 54.0407 -7.0092 317° Northwest 434 499 32,000  Level FlightAware ADS-B (EIDW / DUB)
07:04AM 54.0847 -7.0796 317° Northwest 435 501 32,000  Level FlightAware ADS-B
07:04AM 54.1043 -7.1110 317° Northwest 435 501 32,000  Level FlightAware ADS-B (EIDW / DUB)
07:05AM 54.1714 -7.2465 310° West 426 490 32,000 -120 Level FlightAware ADS-B
07:05AM 54.2091 -7.3328 310° West 498 573 31,900  Descending FlightAware UK
07:05AM 54.2185 -7.3535 310° West 426 490 32,000 120 Climbing FlightAware ADS-B
07:06AM 54.2624 -7.4489 308° West 426 490 32,000  Level FlightAware ADS-B
07:07AM 54.3083 -7.5574 308° West 494 568 32,000  Level FlightAware UK
07:07AM 54.3189 -7.5832 308° West 428 493 32,000  Level FlightAware ADS-B
07:07AM 54.3534 -7.6660 306° West 432 497 32,000  Level FlightAware ADS-B
07:08AM 54.3957 -7.7670 306° West 435 501 32,000  Level FlightAware ADS-B
07:08AM 54.4316 -7.8528 306° West 434 499 32,000  Level FlightAware ADS-B
07:09AM 54.4825 -7.9753 306° West 502 578 32,000  Level FlightAware UK
07:09AM 54.5050 -8.0310 305° West 428 493 32,000  Level FlightAware
07:10AM 54.5173 -8.0596 305° West 500 575 32,000  Level FlightAware UK
07:10AM 54.5520 -8.1436 305° West 496 571 32,000  Level FlightAware UK
07:10AM 54.5520 -8.1440 305° West 426 490 32,000  Level FlightAware
07:11AM 54.6030 -8.2690 305° West 428 493 32,000  Level FlightAware
07:11AM 54.6200 -8.3113 305° West 432 497 32,000 -180 Level FlightAware ADS-B
07:12AM 54.6546 -8.3964 305° West 498 573 31,900  Descending FlightAware UK
07:12AM 54.6889 -8.4815 305° West 496 571 32,000 180 Climbing FlightAware UK
07:12AM 54.6890 -8.4820 305° West 431 496 32,000  Level FlightAware
07:13AM 54.7240 -8.5680 305° West 432 497 32,000  Level FlightAware
07:13AM 54.7647 -8.6694 305° West 498 573 32,000  Level FlightAware UK
07:13AM 54.7640 -8.6680 305° West 431 496 32,000  Level FlightAware
07:14AM 54.8100 -8.7840 305° West 431 496 32,000  Level FlightAware
07:15AM 54.8560 -8.8990 305° West 431 496 32,000 -180 Level FlightAware
07:15AM 54.8675 -8.9274 305° West 496 571 31,900 -180 Descending FlightAware UK
07:15AM 54.9017 -9.0139 305° West 498 573 31,900 180 Level FlightAware UK
07:15AM 54.9020 -9.0140 305° West 433 498 32,000 120 Climbing FlightAware
07:16AM 54.9480 -9.1310 304° West 435 501 32,000  Level FlightAware
07:17AM 55.0040 -9.2750 304° West 438 504 32,000  Level FlightAware
07:17AM 55.0460 -9.3800 305° West 439 505 32,000  Level FlightAware
07:18AM 55.0850 -9.4810 304° West 439 505 32,000  Level FlightAware
07:19AM 55.1320 -9.6030 304° West 438 504 32,000  Level FlightAware
07:19AM 55.1710 -9.7040 304° West 442 509 32,000  Level FlightAware
07:20AM 55.2090 -9.8030 304° West 438 504 32,000  Level FlightAware
07:20AM 55.2600 -9.9370 304° West 443 510 32,000  Level FlightAware
07:21AM 55.3010 -10.0460 303° West 444 511 32,000  Level FlightAware
07:21AM 55.3270 -10.1150 304° West 445 512 32,000  Level FlightAware
07:22AM 55.3780 -10.2490 304° West 446 513 32,000  Level FlightAware
07:23AM 55.4220 -10.3670 303° West 445 512 32,000  Level FlightAware
07:23AM 55.4620 -10.4730 304° West 443 510 32,000  Level FlightAware
07:24AM 55.4870 -10.5410 303° West 444 511 32,000  Level FlightAware
07:25AM 55.5520 -10.7170 303° West 446 513 32,000  Level FlightAware
07:25AM 55.6030 -10.8550 303° West 446 513 32,000  Level FlightAware
07:26AM 55.6530 -10.9930 303° West 447 514 32,000  Level FlightAware
07:27AM 55.6930 -11.1030 303° West 448 516 32,000  Level FlightAware
07:28AM 55.7460 -11.2490 303° West 448 516 32,000  Level FlightAware
07:28AM 55.7930 -11.3780 303° West 449 517 32,000  Level FlightAware
07:29AM 55.8240 -11.4640 303° West 450 518 32,000  Level FlightAware
07:29AM 55.8670 -11.5850 302° West 449 517 32,000  Level FlightAware
07:30AM 55.8890 -11.6490 302° West 449 517 32,000  Level FlightAware
07:31AM 55.9240 -11.7480 302° West 450 518 32,000  Level FlightAware
07:32AM 55.9580 -11.8440 302° West 450 518 32,000  Level FlightAware
07:32AM 55.9920 -11.9410 302° West 450 518 32,000  Level FlightAware
07:33AM 56.0480 -12.1020 302° West 450 518 32,000  Level FlightAware
07:34AM 56.0930 -12.2310 302° West 450 518 32,000  Level FlightAware
07:35AM 56.1380 -12.3600 302° West 450 518 32,000  Level FlightAware
07:35AM 56.1720 -12.4570 302° West 450 518 32,000  Level FlightAware
07:36AM 56.2050 -12.5540 301° West 450 518 32,000  Level FlightAware
07:37AM 56.2400 -12.6540 302° West 450 518 32,000  Level FlightAware
07:37AM 56.2750 -12.7540 302° West 450 518 32,000  Level FlightAware
07:38AM 56.3200 -12.8840 302° West 450 518 32,000  Level FlightAware
07:39AM 56.3540 -12.9840 302° West 450 518 32,000  Level FlightAware
07:39AM 56.3880 -13.0820 302° West 450 518 32,000  Level FlightAware
07:40AM 56.4220 -13.1800 302° West 450 518 32,000  Level FlightAware
07:40AM 56.4440 -13.2450 301° West 450 518 32,000 -60 Level FlightAware
07:43AM 56.4623 -13.7142 274° West  Level Estimated
07:44AM 56.4701 -13.9277 274° West  Level Estimated
07:45AM 56.4774 -14.1412 274° West  Level Estimated
07:46AM 56.4845 -14.3548 273° West  Level Estimated
07:47AM 56.4911 -14.5685 273° West  Level Estimated
07:48AM 56.4974 -14.7823 273° West  Level Estimated
07:49AM 56.5034 -15.0001 273° West  Level Estimated
07:50AM 56.5090 -15.2181 273° West  Level Estimated
07:51AM 56.5143 -15.4361 273° West  Level Estimated
07:52AM 56.5191 -15.6541 272° West  Level Estimated
07:53AM 56.5236 -15.8722 272° West  Level Estimated
07:54AM 56.5277 -16.0904 272° West  Level Estimated
07:55AM 56.5315 -16.3086 272° West  Level Estimated
07:56AM 56.5348 -16.5268 272° West  Level Estimated
07:57AM 56.5378 -16.7451 272° West  Level Estimated
07:58AM 56.5404 -16.9634 271° West  Level Estimated
07:59AM 56.5426 -17.1817 271° West  Level Estimated
08:00AM 56.5444 -17.4001 271° West  Level Estimated
08:01AM 56.5458 -17.6185 271° West  Level Estimated
08:02AM 56.5468 -17.8369 271° West  Level Estimated
08:03AM 56.5475 -18.0553 270° West  Level Estimated
08:04AM 56.5478 -18.2737 270° West  Level Estimated
08:05AM 56.5477 -18.4921 270° West  Level Estimated
08:06AM 56.5472 -18.7105 270° West  Level Estimated
08:07AM 56.5463 -18.9289 270° West  Level Estimated
08:08AM 56.5451 -19.1473 269° West  Level Estimated
08:09AM 56.5435 -19.3657 269° West  Level Estimated
08:09AM 58.0000 -20.0000 274° West 453 521 31,000  Level ETMS Enhanced Traffic Management System
08:10AM 56.5414 -19.5840 269° West  Level Estimated
08:11AM 56.5391 -19.7989 269° West  Level Estimated
08:12AM 56.5364 -20.0138 269° West  Level Estimated
08:13AM 56.5332 -20.2287 269° West  Level Estimated
08:14AM 56.5298 -20.4435 268° West  Level Estimated
08:15AM 56.5259 -20.6583 268° West  Level Estimated
08:16AM 58.0545 -21.6633 273° West 453 521 31,000  Level FlightAware Transoceanic
08:17AM 58.0605 -21.9013 273° West 453 521 31,000  Level FlightAware Transoceanic
08:18AM 58.0660 -22.1393 272° West 453 521 31,000  Level FlightAware Transoceanic
08:19AM 58.0711 -22.3775 272° West 453 521 31,000  Level FlightAware Transoceanic
08:20AM 58.0758 -22.6157 272° West 453 521 31,000  Level FlightAware Transoceanic
08:21AM 58.0801 -22.8539 272° West 453 521 31,000  Level FlightAware Transoceanic
08:22AM 58.0838 -23.0923 272° West 453 521 31,000  Level FlightAware Transoceanic
08:23AM 58.0872 -23.3306 271° West 453 521 31,000  Level FlightAware Transoceanic
08:24AM 58.0901 -23.5690 271° West 453 521 31,000  Level FlightAware Transoceanic
08:25AM 58.0925 -23.8075 271° West 453 521 31,000  Level FlightAware Transoceanic
08:26AM 58.0945 -24.0459 271° West 453 521 31,000  Level FlightAware Transoceanic
08:27AM 58.0961 -24.2844 271° West 453 521 31,000  Level FlightAware Transoceanic
08:28AM 58.0972 -24.5229 270° West 453 521 31,000  Level FlightAware Transoceanic
08:29AM 58.0979 -24.7615 270° West 453 521 31,000  Level FlightAware Transoceanic
08:30AM 58.0981 -25.0000 270° West 453 521 31,000  Level FlightAware Transoceanic
08:31AM 58.0979 -25.2385 270° West 453 521 31,000  Level FlightAware Transoceanic
08:32AM 58.0972 -25.4771 270° West 453 521 31,000  Level FlightAware Transoceanic
08:33AM 58.0961 -25.7156 269° West 453 521 31,000  Level FlightAware Transoceanic
08:34AM 58.0945 -25.9541 269° West 453 521 31,000  Level FlightAware Transoceanic
08:35AM 58.0925 -26.1925 269° West 453 521 31,000  Level FlightAware Transoceanic
08:36AM 58.0901 -26.4310 269° West 453 521 31,000  Level FlightAware Transoceanic
08:37AM 58.0872 -26.6694 269° West 453 521 31,000  Level FlightAware Transoceanic
08:38AM 58.0838 -26.9077 268° West 453 521 31,000  Level FlightAware Transoceanic
08:39AM 58.0801 -27.1461 268° West 453 521 31,000  Level FlightAware Transoceanic
08:40AM 58.0758 -27.3843 268° West 453 521 31,000  Level FlightAware Transoceanic
08:41AM 58.0711 -27.6225 268° West 453 521 31,000  Level FlightAware Transoceanic
08:42AM 58.0660 -27.8607 268° West 453 521 31,000  Level FlightAware Transoceanic
08:43AM 58.0605 -28.0987 267° West 453 521 31,000  Level FlightAware Transoceanic
08:44AM 58.0545 -28.3367 267° West 453 521 31,000  Level FlightAware Transoceanic
08:45AM 58.0480 -28.5746 267° West 453 521 31,000  Level FlightAware Transoceanic
08:46AM 58.0411 -28.8125 267° West 453 521 31,000  Level FlightAware Transoceanic
08:47AM 58.0338 -29.0502 267° West 453 521 31,000  Level FlightAware Transoceanic
08:48AM 58.0260 -29.2878 266° West 453 521 31,000  Level FlightAware Transoceanic
08:49AM 58.0178 -29.5253 266° West 453 521 31,000  Level FlightAware Transoceanic
08:50AM 58.0091 -29.7627 266° West 453 521 31,000  Level FlightAware Transoceanic
08:51AM 58.0006 -29.9858 266° West  Level FlightAware Approximate
08:52AM 57.9916 -30.2088 266° West  Level FlightAware Approximate
08:53AM 58.0071 -30.1948 274° West  Level FlightAware Approximate
08:54AM 58.0149 -30.4181 274° West  Level FlightAware Approximate
08:55AM 58.0224 -30.6414 274° West  Level FlightAware Approximate
08:56AM 58.0294 -30.8648 273° West  Level FlightAware Approximate
08:57AM 58.0360 -31.0884 273° West  Level FlightAware Approximate
08:58AM 58.0423 -31.3120 273° West  Level FlightAware Approximate
08:59AM 58.0481 -31.5357 273° West  Level FlightAware Approximate
09:00AM 58.0536 -31.7594 273° West  Level FlightAware Approximate
09:01AM 58.0587 -31.9832 273° West  Level FlightAware Approximate
09:02AM 58.0633 -32.2071 272° West  Level FlightAware Approximate
09:03AM 58.0676 -32.4310 272° West  Level FlightAware Approximate
09:04AM 58.0715 -32.6550 272° West  Level FlightAware Approximate
09:05AM 58.0750 -32.8790 272° West  Level FlightAware Approximate
09:06AM 58.0781 -33.1031 272° West  Level FlightAware Approximate
09:07AM 58.0808 -33.3272 271° West  Level FlightAware Approximate
09:08AM 58.0831 -33.5514 271° West  Level FlightAware Approximate
09:09AM 58.0850 -33.7755 271° West  Level FlightAware Approximate
09:10AM 58.0866 -33.9997 271° West  Level FlightAware Approximate
09:11AM 58.0877 -34.2239 271° West  Level FlightAware Approximate
09:12AM 58.0884 -34.4481 270° West  Level FlightAware Approximate
09:13AM 58.0888 -34.6724 270° West  Level FlightAware Approximate
09:14AM 58.0887 -34.8966 270° West  Level FlightAware Approximate
09:15AM 58.0883 -35.1208 270° West  Level FlightAware Approximate
09:16AM 58.0874 -35.3450 270° West  Level FlightAware Approximate
09:17AM 58.0862 -35.5692 270° West  Level FlightAware Approximate
09:18AM 58.0846 -35.7934 269° West  Level FlightAware Approximate
09:19AM 58.0826 -36.0176 269° West  Level FlightAware Approximate
09:20AM 58.0802 -36.2417 269° West  Level FlightAware Approximate
09:21AM 58.0774 -36.4658 269° West  Level FlightAware Approximate
09:21AM 58.0500 -37.7000 269° West 500 575 31,000  Level Gander Center
09:22AM 58.0742 -36.6898 269° West  Level FlightAware Approximate
09:22AM 58.0500 -37.9667 270° West 500 575 31,000  Level Gander Center
09:23AM 58.0706 -36.9139 268° West  Level FlightAware Approximate
09:23AM 58.0500 -38.2333 270° West 500 575 31,000  Level Gander Center
09:24AM 58.0666 -37.1379 269° West  Level FlightAware Approximate
09:24AM 58.0333 -38.4667 262° West 500 575 31,000  Level Gander Center
09:25AM 58.0637 -37.3619 269° West  Level FlightAware Approximate
09:25AM 58.0333 -38.7333 270° West 500 575 31,000  Level Gander Center
09:26AM 58.0604 -37.5858 269° West  Level FlightAware Approximate
09:26AM 58.0333 -39.0000 270° West 500 575 31,000  Level Gander Center
09:27AM 58.0167 -39.2667 263° West 500 575 31,000  Level Gander Center
09:28AM 58.0167 -39.5000 270° West 500 575 31,000  Level Gander Center
09:29AM 57.9833 -39.7667 257° West 500 575 31,000  Level Gander Center
09:30AM 57.9667 -40.0000 262° West 500 575 31,000  Level Gander Center
09:31AM 57.9333 -40.2667 257° West 500 575 31,000  Level Gander Center
09:32AM 57.8833 -40.5167 249° West 500 575 31,000  Level Gander Center
09:33AM 57.8500 -40.7500 255° West 500 575 31,000  Level Gander Center
09:34AM 57.8167 -41.0167 257° West 500 575 31,000  Level Gander Center
09:35AM 57.7833 -41.2500 255° West 490 564 31,000  Level Gander Center
09:36AM 57.7333 -41.5000 250° West 490 564 31,000  Level Gander Center
09:37AM 57.7000 -41.7167 254° West 490 564 31,000  Level Gander Center
09:38AM 57.6500 -41.9667 250° West 490 564 31,000  Level Gander Center
09:39AM 57.6167 -42.2000 255° West 490 564 31,000  Level Gander Center
09:40AM 57.5667 -42.4500 250° West 490 564 31,000  Level Gander Center
09:41AM 57.5333 -42.6667 254° West 490 564 31,000  Level Gander Center
09:42AM 57.5000 -42.9000 255° West 490 564 31,000  Level Gander Center
09:43AM 57.4500 -43.1500 250° West 490 564 31,000  Level Gander Center
09:44AM 57.4167 -43.4000 256° West 490 564 31,000  Level Gander Center
09:45AM 57.3667 -43.6333 248° West 490 564 31,000  Level Gander Center
09:46AM 57.3167 -43.8500 247° West 480 552 31,000  Level Gander Center
09:47AM 57.2667 -44.1000 250° West 480 552 31,000  Level Gander Center
09:48AM 57.2333 -44.3333 255° West 480 552 31,000  Level Gander Center
09:49AM 57.2000 -44.5333 253° West 480 552 31,000  Level Gander Center
09:50AM 57.1333 -44.7833 244° Southwest 480 552 31,000  Level Gander Center
09:51AM 57.1000 -45.0167 255° West 480 552 31,000  Level Gander Center
09:52AM 57.0667 -45.2333 254° West 470 541 31,000  Level Gander Center
09:53AM 57.0000 -45.4667 242° Southwest 470 541 31,000  Level Gander Center
09:54AM 56.9667 -45.6667 253° West 470 541 31,000  Level Gander Center
09:55AM 56.9167 -45.9000 249° West 470 541 31,000  Level Gander Center
09:56AM 56.8667 -46.1167 247° West 470 541 31,000  Level Gander Center
09:57AM 56.8167 -46.3500 249° West 470 541 31,000  Level Gander Center
09:58AM 56.7833 -46.5833 255° West 470 541 31,000  Level Gander Center
09:59AM 56.7167 -46.7833 239° Southwest 470 541 31,000  Level Gander Center
10:00AM 56.6833 -47.0167 256° West 470 541 31,000  Level Gander Center
10:01AM 56.6333 -47.2167 246° West 470 541 31,000  Level Gander Center
10:02AM 56.5833 -47.4333 247° West 460 529 31,000  Level Gander Center
10:03AM 56.5333 -47.6667 249° West 460 529 31,000  Level Gander Center
10:04AM 56.4833 -47.8667 246° West 470 541 31,000  Level Gander Center
10:05AM 56.4333 -48.1000 249° West 460 529 31,000  Level Gander Center
10:06AM 56.4000 -48.2833 252° West 460 529 31,000  Level Gander Center
10:07AM 56.3333 -48.5167 243° Southwest 460 529 31,000  Level Gander Center
10:09AM 56.2558 -48.8712 249° West  Level FlightAware Approximate
10:16AM 55.9371 -50.2519 246° West  Level FlightAware Approximate
10:17AM 55.8883 -50.4457 246° West  Level FlightAware Approximate
10:18AM 55.8391 -50.6389 246° West  Level FlightAware Approximate
10:19AM 55.7897 -50.8317 246° West  Level FlightAware Approximate
10:20AM 55.7399 -51.0240 245° Southwest  Level FlightAware Approximate
10:21AM 55.6899 -51.2158 245° Southwest  Level FlightAware Approximate
10:22AM 55.6395 -51.4071 245° Southwest  Level FlightAware Approximate
10:23AM 55.5889 -51.5979 245° Southwest  Level FlightAware Approximate
10:24AM 55.5379 -51.7882 245° Southwest  Level FlightAware Approximate
10:25AM 55.4867 -51.9780 245° Southwest  Level FlightAware Approximate
10:26AM 55.4352 -52.1673 244° Southwest  Level FlightAware Approximate
10:27AM 55.3834 -52.3562 244° Southwest  Level FlightAware Approximate
10:28AM 55.3317 -52.5449 244° Southwest  Level FlightAware Approximate
10:29AM 55.2801 -52.7334 244° Southwest  Level FlightAware Approximate
10:30AM 55.2281 -52.9214 244° Southwest  Level FlightAware Approximate
10:31AM 55.1758 -53.1088 244° Southwest  Level FlightAware Approximate
10:32AM 55.1233 -53.2958 244° Southwest  Level FlightAware Approximate
10:32AM 55.1333 -53.8167 243° Southwest 440 506 31,000  Level Gander Center
10:33AM 55.0705 -53.4823 244° Southwest  Level FlightAware Approximate
10:33AM 55.0500 -54.1667 248° West 670 771 33,000  Level Gander Center
10:34AM 55.0174 -53.6683 244° Southwest  Level FlightAware Approximate
10:35AM 54.9640 -53.8538 243° Southwest  Level FlightAware Approximate
10:35AM 54.9633 -54.3471 230° Southwest  Level Estimated
10:36AM 54.9103 -54.0388 243° Southwest  Level FlightAware Approximate
10:37AM 54.8563 -54.2234 243° Southwest  Level FlightAware Approximate
10:38AM 54.8021 -54.4074 243° Southwest  Level FlightAware Approximate
10:39AM 54.8167 -55.0500 229° Southwest 440 506 31,000  Level Moncton Center
10:40AM 54.7667 -55.2333 245° Southwest 440 506 31,000  Level Moncton Center
10:42AM 54.4223 -55.4441 230° Southwest  Level Estimated
10:42AM 54.6667 -55.6333 247° West 440 506 31,000  Level Moncton Center
10:43AM 54.3430 -55.6009 229° Southwest  Level Estimated
10:43AM 54.6167 -55.8167 245° Southwest 440 506 31,000  Level Moncton Center
10:44AM 54.2635 -55.7570 229° Southwest  Level Estimated
10:44AM 54.5500 -55.9833 235° Southwest 440 506 31,000  Level Moncton Center
10:45AM 54.4667 -56.1333 226° Southwest 430 495 31,000  Level Moncton Center
10:46AM 54.4000 -56.3167 238° Southwest 430 495 31,000  Level Moncton Center
10:47AM 54.3333 -56.4833 236° Southwest 440 506 31,000  Level Moncton Center
10:48AM 54.2500 -56.6167 223° Southwest 430 495 31,000  Level Moncton Center
10:49AM 54.1667 -56.8000 232° Southwest 430 495 31,000  Level Moncton Center
10:50AM 54.0833 -56.9333 223° Southwest 430 495 31,000  Level Moncton Center
10:51AM 54.0167 -57.0833 233° Southwest 430 495 31,000  Level Moncton Center
10:52AM 53.9333 -57.2333 227° Southwest 430 495 31,000  Level Moncton Center
10:53AM 53.8500 -57.4000 230° Southwest 430 495 31,000  Level Moncton Center
10:54AM 53.7667 -57.5500 227° Southwest 430 495 31,000  Level Moncton Center
10:55AM 53.7000 -57.7000 233° Southwest 430 495 31,000  Level Moncton Center
10:55AM 53.7000 -57.7000 233° Southwest 420 483 31,000  Level Gander Center
10:56AM 53.6167 -57.8333 224° Southwest 420 483 31,000  Level Moncton Center
10:57AM 53.5333 -57.9833 227° Southwest 420 483 31,000  Level Moncton Center
10:58AM 53.4667 -58.1333 233° Southwest 420 483 31,000  Level Moncton Center
10:59AM 53.3833 -58.2500 220° Southwest 420 483 31,000  Level Moncton Center
11:00AM 53.3000 -58.4000 227° Southwest 420 483 31,000  Level Moncton Center
11:01AM 53.2167 -58.5500 227° Southwest 410 472 31,000  Level Moncton Center
11:02AM 53.1333 -58.6833 224° Southwest 410 472 31,000  Level Moncton Center
11:03AM 53.0667 -58.8333 234° Southwest 410 472 31,000  Level Moncton Center
11:04AM 52.9833 -58.9833 227° Southwest 410 472 31,000  Level Moncton Center
11:05AM 52.9000 -59.1000 220° Southwest 410 472 31,000  Level Moncton Center
11:06AM 52.8333 -59.2500 234° Southwest 410 472 31,000  Level Moncton Center
11:07AM 52.7500 -59.4000 227° Southwest 410 472 31,000  Level Moncton Center
11:08AM 52.6667 -59.5167 220° Southwest 410 472 31,000  Level Moncton Center
11:09AM 52.6000 -59.6667 234° Southwest 410 472 31,000  Level Moncton Center
11:10AM 52.5167 -59.7833 220° Southwest 410 472 31,000  Level Moncton Center
11:11AM 52.4333 -59.9167 224° Southwest 410 472 31,000  Level Moncton Center
11:12AM 52.3500 -60.0333 221° Southwest 400 460 31,000  Level Moncton Center
11:13AM 52.2833 -60.1833 234° Southwest 400 460 31,000  Level Moncton Center
11:14AM 52.2000 -60.3333 228° Southwest 400 460 31,000  Level Moncton Center
11:15AM 52.1167 -60.4500 221° Southwest 400 460 31,000  Level Moncton Center
11:16AM 52.0333 -60.5667 221° Southwest 400 460 31,000  Level Moncton Center
11:17AM 51.9667 -60.7000 231° Southwest 400 460 31,000 120 Level Moncton Center
11:18AM 51.8833 -60.8167 221° Southwest 400 460 31,300 300 Climbing Moncton Center
11:19AM 51.8000 -60.9333 221° Southwest 400 460 31,700 300 Climbing Moncton Center
11:20AM 51.7167 -61.0500 221° Southwest 400 460 32,000 120 Climbing Moncton Center
11:21AM 51.6167 -61.1833 220° Southwest 400 460 32,000  Level Moncton Center
11:22AM 51.5500 -61.3000 227° Southwest 400 460 32,000  Level Moncton Center
11:23AM 51.4667 -61.4167 221° Southwest 400 460 32,000  Level Moncton Center
11:24AM 51.3833 -61.5333 221° Southwest 400 460 32,000  Level Moncton Center
11:25AM 51.3000 -61.6333 217° Southwest 400 460 32,000  Level Moncton Center
11:26AM 51.2167 -61.7833 228° Southwest 400 460 32,000  Level Moncton Center
11:27AM 51.1333 -61.8833 217° Southwest 400 460 32,000  Level Moncton Center
11:28AM 51.0333 -62.0000 216° Southwest 400 460 32,000  Level Moncton Center
11:29AM 50.9667 -62.1167 228° Southwest 400 460 32,000  Level Moncton Center
11:30AM 50.8833 -62.2167 217° Southwest 400 460 32,000  Level Moncton Center
11:31AM 50.8000 -62.3333 222° Southwest 400 460 32,000  Level Moncton Center
11:32AM 50.7167 -62.4333 217° Southwest 400 460 32,000  Level Moncton Center
11:33AM 50.6333 -62.5833 229° Southwest 390 449 32,000  Level Moncton Center
11:38AM 50.2090 -63.1470 229° Southwest 401 461 32,000  Level FlightAware
11:38AM 50.1830 -63.1810 220° Southwest 401 461 32,000  Level FlightAware
11:39AM 50.0920 -63.2980 220° Southwest 400 460 32,000  Level FlightAware
11:40AM 50.0150 -63.3980 220° Southwest 401 461 32,000  Level FlightAware
11:40AM 49.9700 -63.4560 220° Southwest 399 459 32,000  Level FlightAware
11:41AM 49.9130 -63.5290 220° Southwest 397 457 32,000  Level FlightAware
11:42AM 49.8540 -63.6050 220° Southwest 399 459 32,000  Level FlightAware
11:42AM 49.8020 -63.6710 219° Southwest 400 460 32,000  Level FlightAware
11:43AM 49.7420 -63.7470 219° Southwest 401 461 32,000  Level FlightAware
11:44AM 49.6860 -63.8170 219° Southwest 401 461 32,000  Level FlightAware
11:45AM 49.6060 -63.9180 219° Southwest 397 457 32,000  Level FlightAware
11:45AM 49.5570 -63.9800 219° Southwest 397 457 32,000  Level FlightAware
11:46AM 49.5050 -64.0450 219° Southwest 397 457 32,000  Level FlightAware
11:46AM 49.4580 -64.1030 219° Southwest 396 456 32,000  Level FlightAware
11:47AM 49.3970 -64.1800 219° Southwest 398 458 32,000  Level FlightAware
11:48AM 49.3320 -64.2610 219° Southwest 400 460 32,000  Level FlightAware
11:49AM 49.2610 -64.3490 219° Southwest 399 459 32,000  Level FlightAware
11:49AM 49.2040 -64.4190 219° Southwest 399 459 32,000  Level FlightAware
11:50AM 49.1530 -64.4810 218° Southwest 403 464 32,000  Level FlightAware
11:51AM 49.1030 -64.5420 219° Southwest 404 465 32,000  Level FlightAware
11:52AM 49.0060 -64.6610 219° Southwest 404 465 32,000  Level FlightAware
11:52AM 48.9490 -64.7300 218° Southwest 407 468 32,000  Level FlightAware
11:53AM 48.8980 -64.7920 219° Southwest 408 470 32,000  Level FlightAware
11:54AM 48.8290 -64.8750 218° Southwest 411 473 32,000  Level FlightAware
11:54AM 48.7760 -64.9400 219° Southwest 413 475 32,000  Level FlightAware
11:55AM 48.7240 -65.0020 218° Southwest 414 476 32,000  Level FlightAware
11:55AM 48.6690 -65.0680 218° Southwest 414 476 32,000  Level FlightAware
11:56AM 48.6130 -65.1340 218° Southwest 415 478 32,000  Level FlightAware
11:57AM 48.5470 -65.2130 218° Southwest 415 478 32,000  Level FlightAware
11:57AM 48.5040 -65.2640 218° Southwest 417 480 32,000  Level FlightAware
11:58AM 48.4420 -65.3370 218° Southwest 420 483 32,000  Level FlightAware
11:59AM 48.3790 -65.4110 218° Southwest 423 487 32,000  Level FlightAware
11:59AM 48.3320 -65.4670 218° Southwest 424 488 32,000  Level FlightAware
12:00PM 48.2720 -65.5370 218° Southwest 425 489 32,000  Level FlightAware
12:00PM 48.2150 -65.6040 218° Southwest 425 489 32,000  Level FlightAware
12:01PM 48.1680 -65.6590 218° Southwest 426 490 32,000  Level FlightAware
12:02PM 48.1010 -65.7370 218° Southwest 426 490 32,000  Level FlightAware
12:02PM 48.0470 -65.7990 218° Southwest 427 491 32,000  Level FlightAware
12:03PM 48.0000 -65.8540 218° Southwest 427 491 32,000  Level FlightAware
12:03PM 47.9290 -65.9360 218° Southwest 427 491 32,000  Level FlightAware
12:04PM 47.8680 -66.0070 218° Southwest 427 491 32,000  Level FlightAware
12:05PM 47.8100 -66.0720 217° Southwest 429 494 32,000  Level FlightAware
12:05PM 47.7470 -66.1440 218° Southwest 430 495 32,000  Level FlightAware
12:06PM 47.7000 -66.1980 218° Southwest 430 495 32,000  Level FlightAware
12:06PM 47.6460 -66.2590 217° Southwest 430 495 32,000  Level FlightAware
12:07PM 47.5910 -66.3220 218° Southwest 433 498 32,000  Level FlightAware
12:08PM 47.5250 -66.3970 218° Southwest 433 498 32,000  Level FlightAware
12:08PM 47.4730 -66.4550 217° Southwest 435 501 32,000  Level FlightAware
12:09PM 47.4150 -66.5200 217° Southwest 436 502 32,000  Level FlightAware
12:10PM 47.3480 -66.5950 217° Southwest 435 501 32,000  Level FlightAware
12:10PM 47.2890 -66.6620 218° Southwest 436 502 32,000  Level FlightAware
12:11PM 47.2270 -66.7310 217° Southwest 438 504 32,000  Level FlightAware
12:12PM 47.1280 -66.8400 217° Southwest 441 507 32,000  Level FlightAware
12:13PM 47.0620 -66.9140 217° Southwest 441 507 32,000  Level FlightAware
12:13PM 46.9780 -67.0060 217° Southwest 444 511 32,000  Level FlightAware
12:14PM 46.9120 -67.0790 217° Southwest 445 512 32,000  Level FlightAware
12:15PM 46.8420 -67.1560 217° Southwest 449 517 32,000  Level FlightAware
12:15PM 46.7780 -67.2250 216° Southwest 450 518 32,000  Level FlightAware
12:16PM 46.7370 -67.2700 217° Southwest 450 518 32,000  Level FlightAware
12:17PM 46.6780 -67.3330 216° Southwest 450 518 32,000  Level FlightAware
12:17PM 46.6260 -67.3880 216° Southwest 450 518 32,000  Level FlightAware
12:18PM 46.5560 -67.4620 216° Southwest 450 518 32,000  Level FlightAware
12:18PM 46.4777 -67.5501 218° Southwest 450 518 32,000  Level FlightAware ADS-B (CYSG)
12:19PM 46.4267 -67.6046 216° Southwest 453 521 32,000  Level FlightAware ADS-B (CYSG)
12:19PM 46.3759 -67.6591 216° Southwest 456 525 32,000  Level FlightAware ADS-B (CYSG)
12:20PM 46.3097 -67.7297 216° Southwest 459 528 32,000  Level FlightAware ADS-B (CYSG)
12:21PM 46.2591 -67.7835 216° Southwest 457 526 32,000  Level FlightAware ADS-B (CYSG)
12:21PM 46.2074 -67.8385 216° Southwest 458 527 32,000  Level FlightAware ADS-B (CYSG)
12:22PM 46.1513 -67.8978 216° Southwest 459 528 32,000  Level FlightAware ADS-B (CYSG)
12:22PM 46.0900 -67.9625 216° Southwest 457 526 32,000  Level FlightAware ADS-B (CYSG)
12:23PM 45.9682 -68.0907 216° Southwest 455 524 32,000  Level FlightAware ADS-B (KBGR)
12:24PM 45.9167 -68.1445 216° Southwest 455 524 32,000  Level FlightAware ADS-B (CYSG)
12:25PM 45.8540 -68.2037 213° Southwest 457 526 32,000  Level FlightAware ADS-B (CYSG)
12:25PM 45.7919 -68.2613 213° Southwest 457 526 32,000  Level FlightAware ADS-B (CYSG)
12:26PM 45.7216 -68.3274 213° Southwest 458 527 32,000  Level FlightAware ADS-B (CYSG)
12:26PM 45.6749 -68.3714 213° Southwest 459 528 32,000  Level FlightAware ADS-B (CYSG)
12:27PM 45.5964 -68.4456 214° Southwest 460 529 32,000  Level FlightAware ADS-B (CYSG)
12:28PM 45.5256 -68.5124 213° Southwest 460 529 32,000  Level FlightAware ADS-B (CYSG)
12:28PM 45.4566 -68.5769 213° Southwest 464 534 32,000  Level FlightAware ADS-B (CYSG)
12:29PM 45.4009 -68.6288 213° Southwest 463 533 32,000  Level FlightAware ADS-B (CYSG)
12:29PM 45.3414 -68.6841 213° Southwest 462 532 32,000  Level FlightAware ADS-B (KBGR)
12:30PM 45.2733 -68.7473 213° Southwest 462 532 32,000  Level FlightAware ADS-B (CYSG)
12:30PM 45.2160 -68.8000 213° Southwest 460 529 32,000  Level FlightAware
12:31PM 45.2988 -68.7237 33° Northeast 461 531 32,000  Level FlightAware ADS-B (KBGR)
12:32PM 45.0658 -68.9386 213° Southwest 461 531 32,000  Level FlightAware ADS-B (KBGR)
12:33PM 44.9853 -69.0125 213° Southwest 461 531 32,000  Level FlightAware ADS-B (CYSG)
12:33PM 44.9182 -69.0737 213° Southwest 456 525 32,000  Level FlightAware ADS-B (CYSG)
12:34PM 44.8487 -69.1372 213° Southwest 455 524 32,000  Level FlightAware ADS-B (CYSG)
12:35PM 44.7850 -69.1951 213° Southwest 457 526 32,000  Level FlightAware ADS-B (KBGR)
12:35PM 44.7462 -69.2302 213° Southwest 459 528 32,000  Level FlightAware ADS-B (CYSG)
12:36PM 44.6657 -69.3030 213° Southwest 460 529 32,000  Level FlightAware ADS-B (KBGR)
12:36PM 44.6101 -69.3531 213° Southwest 458 527 32,000  Level FlightAware ADS-B (KBGR)
12:37PM 44.5309 -69.4241 213° Southwest 457 526 32,000  Level FlightAware ADS-B (CYQI)
12:37PM 44.4758 -69.4737 213° Southwest 457 526 32,000  Level FlightAware ADS-B (CYQI)
12:38PM 44.4242 -69.5198 213° Southwest 456 525 32,000  Level FlightAware ADS-B (CYQI)
12:38PM 44.3634 -69.5740 213° Southwest 457 526 32,000  Level FlightAware ADS-B (CYQI)
12:39PM 44.3078 -69.6236 213° Southwest 453 521 32,000  Level FlightAware ADS-B (CYQI)
12:40PM 44.2480 -69.6766 212° Southwest 450 518 32,000  Level FlightAware ADS-B (CYQI)
12:40PM 44.1933 -69.7252 213° Southwest 451 519 32,000  Level FlightAware ADS-B (CYQI)
12:40PM 44.1520 -69.7618 212° Southwest 444 511 32,000  Level FlightAware ADS-B
12:41PM 44.0912 -69.8154 212° Southwest 450 518 32,000  Level FlightAware ADS-B (CYQI)
12:42PM 44.0289 -69.8702 212° Southwest 445 512 32,000  Level FlightAware ADS-B
12:42PM 44.0187 -69.8792 212° Southwest 445 512 32,000  Level FlightAware ADS-B
12:42PM 43.9766 -69.9163 212° Southwest 452 520 32,000  Level FlightAware ADS-B (KBOS)
12:43PM 43.9292 -69.9577 212° Southwest 445 512 32,000  Level FlightAware ADS-B
12:43PM 43.9095 -69.9750 212° Southwest 445 512 32,000  Level FlightAware ADS-B
12:43PM 43.8630 -70.0157 212° Southwest 449 517 32,000  Level FlightAware ADS-B (CYQI)
12:44PM 43.8313 -70.0433 212° Southwest 449 517 32,000  Level FlightAware ADS-B (KBOS)
12:44PM 43.8074 -70.0641 212° Southwest 449 517 32,000  Level FlightAware ADS-B (CYQI)
12:44PM 43.7639 -70.1021 212° Southwest 449 517 32,000  Level FlightAware ADS-B (CYQI)
12:45PM 43.7639 -70.1021 212° Southwest 452 520 32,000  Level FlightAware ADS-B (CYQI)
12:45PM 43.6428 -70.2072 212° Southwest 453 521 32,000  Level FlightAware ADS-B (CYQI)
12:45PM 43.6204 -70.2266 212° Southwest 443 510 32,000  Level FlightAware ADS-B
12:46PM 43.6018 -70.2427 212° Southwest 450 518 32,000  Level FlightAware ADS-B (CYQI)
12:46PM 43.5479 -70.2891 212° Southwest 452 520 32,000  Level FlightAware ADS-B
12:47PM 43.4949 -70.3348 212° Southwest 442 509 32,000  Level FlightAware ADS-B
12:47PM 43.4419 -70.3803 212° Southwest 444 511 32,000  Level FlightAware ADS-B
12:48PM 43.3863 -70.4282 212° Southwest 451 519 32,000  Level FlightAware ADS-B (KBOS)
12:48PM 43.3304 -70.4760 212° Southwest 453 521 32,000  Level FlightAware ADS-B (KBOS)
12:49PM 43.2805 -70.5186 212° Southwest 450 518 32,000  Level FlightAware ADS-B (KBOS)
12:49PM 43.2218 -70.5687 212° Southwest 450 518 32,000  Level FlightAware ADS-B (KBOS)
12:50PM 43.1658 -70.6162 212° Southwest 449 517 32,000  Level FlightAware ADS-B (KBOS)
12:50PM 43.1332 -70.6439 212° Southwest 449 517 32,000  Level FlightAware ADS-B
12:50PM 43.1071 -70.6660 212° Southwest 443 510 32,000  Level FlightAware ADS-B
12:51PM 43.0728 -70.6951 212° Southwest 443 510 32,000  Level FlightAware ADS-B
12:51PM 43.0159 -70.7434 212° Southwest 451 519 32,000  Level FlightAware ADS-B
12:52PM 42.9595 -70.7909 212° Southwest 453 521 32,000  Level FlightAware ADS-B (KBOS)
12:52PM 42.8923 -70.8475 212° Southwest 450 518 32,000  Level FlightAware ADS-B
12:53PM 42.8389 -70.8916 211° Southwest 445 512 32,000  Level FlightAware ADS-B
12:53PM 42.7986 -70.9186 206° Southwest 454 522 32,000  Level FlightAware ADS-B
12:54PM 42.7612 -70.9384 201° Southwest 460 529 32,000  Level FlightAware ADS-B
12:54PM 42.6934 -70.9711 199° South 461 531 32,000  Level FlightAware ADS-B
12:55PM 42.6181 -71.0068 199° South 462 532 32,000  Level FlightAware ADS-B (KBOS)
12:55PM 42.5558 -71.0364 199° South 460 529 32,000  Level FlightAware ADS-B
12:56PM 42.4843 -71.0707 199° South 462 532 32,000  Level FlightAware ADS-B
12:56PM 42.4169 -71.1031 200° South 460 529 32,000  Level FlightAware ADS-B
12:57PM 42.3561 -71.1321 199° South 459 528 32,000  Level FlightAware ADS-B
12:57PM 42.3401 -71.1397 199° South 461 531 32,000  Level FlightAware ADS-B
12:58PM 42.2780 -71.1693 199° South 460 529 32,000  Level FlightAware ADS-B
12:58PM 42.2272 -71.1935 199° South 460 529 32,000  Level FlightAware ADS-B (KBOS)
12:59PM 42.1549 -71.2276 199° South 460 529 32,000  Level FlightAware ADS-B
12:59PM 42.0926 -71.2570 199° South 459 528 32,000  Level FlightAware ADS-B
01:00PM 42.0326 -71.2852 199° South 460 529 32,000  Level FlightAware ADS-B
01:00PM 41.9700 -71.3147 199° South 460 529 32,000  Level FlightAware ADS-B
01:01PM 41.8909 -71.3518 199° South 458 527 32,000 -120 Level FlightAware ADS-B
01:01PM 41.8304 -71.3801 199° South 460 529 31,900 -900 Descending FlightAware ADS-B
01:02PM 41.7675 -71.4098 199° South 463 533 31,100 -1,320 Descending FlightAware ADS-B
01:02PM 41.7047 -71.4537 208° Southwest 435 501 30,500 -1,320 Descending FlightAware ADS-B
01:03PM 41.6882 -71.4700 216° Southwest 426 490 30,200 -2,280 Descending FlightAware ADS-B
01:03PM 41.6315 -71.5331 220° Southwest 415 478 28,600 -2,400 Descending FlightAware ADS-B
01:04PM 41.5916 -71.5779 220° Southwest 408 470 27,600 -2,580 Descending FlightAware ADS-B
01:04PM 41.5741 -71.5975 220° Southwest 403 464 27,000 -3,000 Descending FlightAware ADS-B
01:04PM 41.5621 -71.6108 220° Southwest 403 464 26,600 -2,400 Descending FlightAware ADS-B
01:05PM 41.5054 -71.6740 220° Southwest 405 466 25,100 -1,920 Descending FlightAware ADS-B
01:05PM 41.4470 -71.7387 220° Southwest 404 465 24,100 -960 Descending FlightAware ADS-B
01:06PM 41.4070 -71.7828 220° Southwest 398 458 24,000 -120 Descending FlightAware ADS-B
01:07PM 41.3852 -71.8068 220° Southwest 398 458 24,000 -600 Level FlightAware ADS-B
01:08PM 41.2290 -71.9780 220° Southwest 397 457 22,900 -1,200 Descending FlightAware
01:08PM 41.1870 -72.0250 220° Southwest 385 443 22,000 -1,620 Descending FlightAware
01:09PM 41.1410 -72.0750 219° Southwest 374 430 21,100 -1,920 Descending FlightAware
01:10PM 41.0966 -72.1400 228° Southwest 355 409 19,600 -1,680 Descending FlightAware ADS-B
01:10PM 41.0720 -72.2290 250° West 357 411 18,900 -1,200 Descending FlightAware
01:11PM 41.0630 -72.2640 251° West 356 410 18,400 -1,380 Descending FlightAware
01:12PM 40.9800 -72.4480 239° Southwest 344 396 16,200 -1,380 Descending FlightAware
01:13PM 40.9540 -72.5000 237° Southwest 340 391 15,400 -720 Descending FlightAware
01:13PM 40.9240 -72.5590 236° Southwest 340 391 15,400 -1,920 Level FlightAware
01:14PM 40.9080 -72.5910 237° Southwest 336 387 13,600 -3,480 Descending FlightAware
01:14PM 40.8730 -72.6620 237° Southwest 329 379 12,100 -1,020 Descending FlightAware
01:15PM 40.8300 -72.7460 236° Southwest 271 312 12,000 -120 Descending FlightAware
01:16PM 40.8100 -72.7870 237° Southwest 251 289 12,000  Level FlightAware
01:16PM 40.7940 -72.8280 243° Southwest 250 288 12,000 -600 Level FlightAware
01:17PM 40.7840 -72.8760 255° West 247 284 11,400 -1,140 Descending FlightAware
01:17PM 40.7720 -72.9300 254° West 245 282 10,700 -1,200 Descending FlightAware
01:18PM 40.7610 -72.9850 255° West 243 280 9,900 -1,440 Descending FlightAware
01:19PM 40.7480 -73.0470 255° West 244 281 8,700 -1,680 Descending FlightAware
01:19PM 40.7380 -73.0920 254° West 248 285 7,900 -1,500 Descending FlightAware
01:20PM 40.7260 -73.1510 255° West 249 287 7,000 -1,440 Descending FlightAware
01:21PM 40.7110 -73.2020 249° West 251 289 6,100 -1,380 Descending FlightAware
01:21PM 40.6790 -73.2410 223° Southwest 254 292 5,300 -1,440 Descending FlightAware
01:22PM 40.6480 -73.2790 223° Southwest 256 295 4,300 -1,140 Descending FlightAware
01:22PM 40.6160 -73.3170 222° Southwest 255 293 4,000 -360 Descending FlightAware
01:23PM 40.5950 -73.3630 239° Southwest 252 290 3,900 -600 Descending FlightAware
01:24PM 40.5760 -73.4330 250° West 234 269 3,200 -600 Descending FlightAware
01:24PM 40.5670 -73.4790 256° West 220 253 3,100 -240 Descending FlightAware
01:25PM 40.5630 -73.5110 261° West 181 208 3,000 -120 Descending FlightAware
01:26PM 40.5600 -73.5620 266° West 184 212 3,000  Level FlightAware
01:26PM 40.5700 -73.5970 291° West 183 211 3,000 -660 Level FlightAware
01:27PM 40.5890 -73.6390 301° West 170 196 2,200 -1,020 Descending FlightAware
01:28PM 40.6010 -73.6660 300° West 142 163 1,700 -840 Descending FlightAware
01:28PM 40.6160 -73.6970 303° West 135 155 1,200 -780 Descending FlightAware
01:29PM 40.6290 -73.7280 299° West 135 155 600 -780 Descending FlightAware
01:30PM 40.6400 -73.7510 302° West 136 157 200 -780 Descending FlightAware
01:30PM 40.6510 -73.7760 300° West 70 81 -300 Descending FlightAware